createdAt,value
2017-11-10T00:00:15.792Z,1011.3
2017-11-10T00:01:17.451Z,1011.2
2017-11-10T00:02:18.856Z,1011.2
2017-11-10T00:03:20.363Z,1011.1
2017-11-10T00:04:21.759Z,1011.2
2017-11-10T00:05:23.192Z,1011.1
2017-11-10T00:06:24.683Z,1011.1
2017-11-10T00:07:26.409Z,1011.1
2017-11-10T00:08:28.443Z,1011.1
2017-11-10T00:09:30.141Z,1011.1
2017-11-10T00:10:31.807Z,1011.1
2017-11-10T00:11:33.309Z,1011.2
2017-11-10T00:12:34.717Z,1011.2
2017-11-10T00:13:36.163Z,1011.1
2017-11-10T00:14:37.663Z,1011.2
2017-11-10T00:15:39.195Z,1011.1
2017-11-10T00:16:40.621Z,1011.1
2017-11-10T00:17:42.050Z,1011.1
2017-11-10T00:18:43.514Z,1011.1
2017-11-10T00:19:44.910Z,1011.0
2017-11-10T00:20:46.362Z,1010.9
2017-11-10T00:21:47.963Z,1010.8
2017-11-10T00:22:49.726Z,1010.7
2017-11-10T00:23:51.809Z,1010.6
2017-11-10T00:24:53.521Z,1010.4
2017-11-10T00:25:54.970Z,1010.4
2017-11-10T00:26:56.355Z,1010.3
2017-11-10T00:27:57.825Z,1010.4
2017-11-10T00:28:59.230Z,1010.5
2017-11-10T00:30:00.936Z,1010.5
2017-11-10T00:31:02.357Z,1010.6
2017-11-10T00:32:04.048Z,1010.6
2017-11-10T00:33:05.708Z,1010.7
2017-11-10T00:34:07.354Z,1010.7
2017-11-10T00:35:08.806Z,1010.7
2017-11-10T00:36:10.248Z,1010.7
2017-11-10T00:37:11.670Z,1010.6
2017-11-10T00:38:13.086Z,1010.6
2017-11-10T00:39:14.504Z,1010.6
2017-11-10T00:40:15.903Z,1010.7
2017-11-10T00:41:17.577Z,1010.6
2017-11-10T00:42:19.177Z,1010.7
2017-11-10T00:43:20.764Z,1010.7
2017-11-10T00:44:22.204Z,1010.8
2017-11-10T00:45:23.632Z,1010.8
2017-11-10T00:46:25.111Z,1010.8
2017-11-10T00:47:26.499Z,1010.8
2017-11-10T00:48:28.154Z,1010.8
2017-11-10T00:49:29.714Z,1010.8
2017-11-10T00:50:31.133Z,1010.8
2017-11-10T00:51:32.564Z,1010.8
2017-11-10T00:52:34.075Z,1010.9
2017-11-10T00:53:35.581Z,1010.8
2017-11-10T00:54:37.052Z,1010.8
2017-11-10T00:55:38.471Z,1010.8
2017-11-10T00:56:39.931Z,1010.7
2017-11-10T00:57:41.657Z,1010.7
2017-11-10T00:58:43.511Z,1010.8
2017-11-10T00:59:45.246Z,1010.8
2017-11-10T01:00:46.897Z,1010.7
2017-11-10T01:01:48.594Z,1010.7
2017-11-10T01:02:50.669Z,1010.7
2017-11-10T01:03:52.503Z,1010.7
2017-11-10T01:04:54.255Z,1010.5
2017-11-10T01:05:55.988Z,1010.5
2017-11-10T01:06:57.772Z,1010.4
2017-11-10T01:07:59.456Z,1010.4
2017-11-10T01:09:01.181Z,1010.4
2017-11-10T01:10:03.063Z,1010.3
2017-11-10T01:11:04.972Z,1010.3
2017-11-10T01:12:06.682Z,1010.2
2017-11-10T01:13:08.360Z,1010.1
2017-11-10T01:14:10.066Z,1010.0
2017-11-10T01:15:11.492Z,1009.9
2017-11-10T01:16:13.238Z,1009.8
2017-11-10T01:17:14.710Z,1009.8
2017-11-10T01:18:16.153Z,1009.8
2017-11-10T01:19:17.532Z,1009.7
2017-11-10T01:20:19.255Z,1009.7
2017-11-10T01:21:21.317Z,1009.7
2017-11-10T01:22:23.051Z,1009.8
2017-11-10T01:23:24.456Z,1009.7
2017-11-10T01:24:26.140Z,1009.8
2017-11-10T01:25:27.545Z,1009.8
2017-11-10T01:26:29.021Z,1009.8
2017-11-10T01:27:30.729Z,1009.8
2017-11-10T01:28:32.613Z,1009.9
2017-11-10T01:29:34.536Z,1009.8
2017-11-10T01:30:36.268Z,1009.9
2017-11-10T01:31:37.974Z,1009.9
2017-11-10T01:32:39.385Z,1009.9
2017-11-10T01:33:41.406Z,1010.0
2017-11-10T01:34:43.089Z,1010.0
2017-11-10T01:35:44.860Z,1010.0
2017-11-10T01:36:46.873Z,1010.0
2017-11-10T01:37:48.316Z,1009.9
2017-11-10T01:38:50.086Z,1009.9
2017-11-10T01:39:51.779Z,1009.9
2017-11-10T01:40:53.225Z,1009.9
2017-11-10T01:41:54.753Z,1009.8
2017-11-10T01:42:56.183Z,1009.8
2017-11-10T01:43:57.664Z,1009.8
2017-11-10T01:44:59.304Z,1009.8
2017-11-10T01:46:01.049Z,1009.8
2017-11-10T01:47:02.480Z,1009.9
2017-11-10T01:48:04.002Z,1009.8
2017-11-10T01:49:05.476Z,1009.7
2017-11-10T01:50:06.925Z,1009.8
2017-11-10T01:51:08.467Z,1009.8
2017-11-10T01:52:10.091Z,1009.7
2017-11-10T01:53:11.530Z,1009.7
2017-11-10T01:54:13.263Z,1009.7
2017-11-10T01:55:15.021Z,1009.6
2017-11-10T01:56:16.753Z,1009.6
2017-11-10T01:57:18.520Z,1009.6
2017-11-10T01:58:20.278Z,1009.6
2017-11-10T01:59:22.037Z,1009.6
2017-11-10T02:00:23.860Z,1009.6
2017-11-10T02:01:25.617Z,1009.6
2017-11-10T02:02:27.425Z,1009.6
2017-11-10T02:03:28.945Z,1009.6
2017-11-10T02:04:30.601Z,1009.6
2017-11-10T02:05:32.308Z,1009.6
2017-11-10T02:06:34.058Z,1009.6
2017-11-10T02:07:35.746Z,1009.6
2017-11-10T02:08:37.399Z,1009.6
2017-11-10T02:09:39.221Z,1009.6
2017-11-10T02:10:40.871Z,1009.6
2017-11-10T02:11:42.703Z,1009.6
2017-11-10T02:12:44.410Z,1009.5
2017-11-10T02:13:46.286Z,1009.5
2017-11-10T02:14:48.027Z,1009.5
2017-11-10T02:15:49.495Z,1009.4
2017-11-10T02:16:51.157Z,1009.3
2017-11-10T02:17:52.653Z,1009.2
2017-11-10T02:18:54.344Z,1009.2
2017-11-10T02:19:56.189Z,1009.2
2017-11-10T02:20:57.712Z,1009.2
2017-11-10T02:21:59.141Z,1009.1
2017-11-10T02:23:01.013Z,1009.2
2017-11-10T02:24:02.675Z,1009.1
2017-11-10T02:25:04.358Z,1009.1
2017-11-10T02:26:05.811Z,1009.1
2017-11-10T02:27:07.256Z,1009.1
2017-11-10T02:28:09.128Z,1009.1
2017-11-10T02:29:10.913Z,1009.0
2017-11-10T02:30:12.432Z,1009.0
2017-11-10T02:31:13.848Z,1009.0
2017-11-10T02:32:15.445Z,1009.0
2017-11-10T02:33:17.259Z,1009.1
2017-11-10T02:34:18.665Z,1009.0
2017-11-10T02:35:20.474Z,1009.1
2017-11-10T02:36:21.910Z,1009.1
2017-11-10T02:37:23.374Z,1009.2
2017-11-10T02:38:25.249Z,1009.2
2017-11-10T02:39:26.710Z,1009.2
2017-11-10T02:40:28.148Z,1009.2
2017-11-10T02:41:29.593Z,1009.2
2017-11-10T02:42:31.409Z,1009.1
2017-11-10T02:43:33.193Z,1009.1
2017-11-10T02:44:34.874Z,1009.1
2017-11-10T02:45:36.406Z,1009.1
2017-11-10T02:46:38.185Z,1009.0
2017-11-10T02:47:39.861Z,1009.0
2017-11-10T02:48:41.646Z,1008.9
2017-11-10T02:49:43.254Z,1008.9
2017-11-10T02:50:45.014Z,1008.8
2017-11-10T02:51:46.785Z,1008.8
2017-11-10T02:52:48.530Z,1008.9
2017-11-10T02:53:49.968Z,1008.9
2017-11-10T02:54:51.675Z,1008.9
2017-11-10T02:55:53.129Z,1008.9
2017-11-10T02:56:54.799Z,1008.9
2017-11-10T02:57:56.596Z,1008.9
2017-11-10T02:58:58.375Z,1008.9
2017-11-10T03:00:00.182Z,1008.9
2017-11-10T03:01:01.634Z,1008.8
2017-11-10T03:02:03.464Z,1008.8
2017-11-10T03:03:05.415Z,1008.8
2017-11-10T03:04:07.148Z,1008.7
2017-11-10T03:05:08.584Z,1008.8
2017-11-10T03:06:10.035Z,1008.8
2017-11-10T03:07:11.947Z,1008.7
2017-11-10T03:08:13.803Z,1008.6
2017-11-10T03:09:15.635Z,1008.6
2017-11-10T03:10:17.335Z,1008.6
2017-11-10T03:11:18.995Z,1008.6
2017-11-10T03:12:20.453Z,1008.6
2017-11-10T03:13:22.052Z,1008.6
2017-11-10T03:14:23.736Z,1008.7
2017-11-10T03:15:25.430Z,1008.7
2017-11-10T03:16:26.884Z,1008.7
2017-11-10T03:17:28.325Z,1008.6
2017-11-10T03:18:30.028Z,1008.6
2017-11-10T03:19:31.842Z,1008.6
2017-11-10T03:20:33.602Z,1008.6
2017-11-10T03:21:35.475Z,1008.6
2017-11-10T03:22:37.312Z,1008.6
2017-11-10T03:23:38.735Z,1008.5
2017-11-10T03:24:40.158Z,1008.5
2017-11-10T03:25:41.657Z,1008.5
2017-11-10T03:26:43.330Z,1008.6
2017-11-10T03:27:45.096Z,1008.6
2017-11-10T03:28:46.816Z,1008.6
2017-11-10T03:29:48.290Z,1008.5
2017-11-10T03:30:49.928Z,1008.5
2017-11-10T03:31:51.690Z,1008.5
2017-11-10T03:32:53.146Z,1008.4
2017-11-10T03:33:54.944Z,1008.4
2017-11-10T03:34:56.384Z,1008.4
2017-11-10T03:35:58.178Z,1008.3
2017-11-10T03:36:59.781Z,1008.3
2017-11-10T03:38:01.485Z,1008.3
2017-11-10T03:39:03.177Z,1008.3
2017-11-10T03:40:04.603Z,1008.2
2017-11-10T03:41:06.092Z,1008.2
2017-11-10T03:42:07.746Z,1008.3
2017-11-10T03:43:09.553Z,1008.2
2017-11-10T03:44:11.351Z,1008.2
2017-11-10T03:45:13.127Z,1008.2
2017-11-10T03:46:14.845Z,1008.2
2017-11-10T03:47:16.626Z,1008.2
2017-11-10T03:48:18.292Z,1008.1
2017-11-10T03:49:20.007Z,1008.1
2017-11-10T03:50:21.458Z,1008.1
2017-11-10T03:51:23.117Z,1008.1
2017-11-10T03:52:24.768Z,1008.1
2017-11-10T03:53:26.498Z,1008.1
2017-11-10T03:54:27.956Z,1008.1
2017-11-10T03:55:29.699Z,1008.1
2017-11-10T03:56:31.537Z,1008.1
2017-11-10T03:57:32.996Z,1008.1
2017-11-10T03:58:34.716Z,1008.0
2017-11-10T03:59:36.341Z,1008.0
2017-11-10T04:00:38.144Z,1008.0
2017-11-10T04:01:39.822Z,1008.0
2017-11-10T04:02:41.730Z,1007.9
2017-11-10T04:03:43.464Z,1008.0
2017-11-10T04:04:45.120Z,1008.0
2017-11-10T04:05:46.825Z,1007.9
2017-11-10T04:06:48.575Z,1008.0
2017-11-10T04:07:49.994Z,1007.9
2017-11-10T04:08:51.712Z,1007.9
2017-11-10T04:09:53.635Z,1007.9
2017-11-10T04:10:55.392Z,1007.9
2017-11-10T04:11:57.099Z,1007.9
2017-11-10T04:12:58.895Z,1008.0
2017-11-10T04:14:00.321Z,1007.9
2017-11-10T04:15:02.156Z,1007.9
2017-11-10T04:16:03.987Z,1007.9
2017-11-10T04:17:05.708Z,1007.9
2017-11-10T04:18:07.590Z,1007.9
2017-11-10T04:19:09.345Z,1007.8
2017-11-10T04:20:10.976Z,1007.9
2017-11-10T04:21:12.733Z,1007.8
2017-11-10T04:22:14.471Z,1007.7
2017-11-10T04:23:16.339Z,1007.7
2017-11-10T04:24:17.773Z,1007.7
2017-11-10T04:25:19.567Z,1007.7
2017-11-10T04:26:21.313Z,1007.7
2017-11-10T04:27:23.170Z,1007.7
2017-11-10T04:28:24.912Z,1007.7
2017-11-10T04:29:26.856Z,1007.8
2017-11-10T04:30:28.611Z,1007.7
2017-11-10T04:31:30.415Z,1007.8
2017-11-10T04:32:32.189Z,1007.7
2017-11-10T04:33:33.868Z,1007.7
2017-11-10T04:34:35.599Z,1007.6
2017-11-10T04:35:37.032Z,1007.6
2017-11-10T04:36:38.777Z,1007.6
2017-11-10T04:37:40.462Z,1007.6
2017-11-10T04:38:42.197Z,1007.6
2017-11-10T04:39:43.896Z,1007.6
2017-11-10T04:40:45.594Z,1007.6
2017-11-10T04:41:47.272Z,1007.6
2017-11-10T04:42:49.063Z,1007.5
2017-11-10T04:43:50.694Z,1007.5
2017-11-10T04:44:52.504Z,1007.5
2017-11-10T04:45:54.136Z,1007.5
2017-11-10T04:46:56.051Z,1007.5
2017-11-10T04:47:57.703Z,1007.5
2017-11-10T04:48:59.195Z,1007.5
2017-11-10T04:50:00.897Z,1007.5
2017-11-10T04:51:02.713Z,1007.5
2017-11-10T04:52:04.169Z,1007.5
2017-11-10T04:53:06.027Z,1007.4
2017-11-10T04:54:07.764Z,1007.4
2017-11-10T04:55:09.509Z,1007.4
2017-11-10T04:56:10.960Z,1007.4
2017-11-10T04:57:12.752Z,1007.4
2017-11-10T04:58:14.448Z,1007.4
2017-11-10T04:59:16.198Z,1007.4
2017-11-10T05:00:17.979Z,1007.3
2017-11-10T05:01:19.937Z,1007.4
2017-11-10T05:02:21.791Z,1007.4
2017-11-10T05:03:23.463Z,1007.4
2017-11-10T05:04:25.111Z,1007.4
2017-11-10T05:05:26.614Z,1007.3
2017-11-10T05:06:28.391Z,1007.4
2017-11-10T05:07:30.035Z,1007.4
2017-11-10T05:08:31.694Z,1007.4
2017-11-10T05:09:33.155Z,1007.4
2017-11-10T05:10:34.884Z,1007.4
2017-11-10T05:11:36.687Z,1007.4
2017-11-10T05:12:38.389Z,1007.4
2017-11-10T05:13:40.154Z,1007.4
2017-11-10T05:14:41.814Z,1007.4
2017-11-10T05:15:43.326Z,1007.3
2017-11-10T05:16:44.780Z,1007.4
2017-11-10T05:17:46.555Z,1007.3
2017-11-10T05:18:48.319Z,1007.3
2017-11-10T05:19:50.049Z,1007.3
2017-11-10T05:20:51.537Z,1007.4
2017-11-10T05:21:53.405Z,1007.3
2017-11-10T05:22:55.203Z,1007.3
2017-11-10T05:23:56.976Z,1007.3
2017-11-10T05:24:58.363Z,1007.3
2017-11-10T05:26:00.172Z,1007.2
2017-11-10T05:27:01.834Z,1007.2
2017-11-10T05:28:03.705Z,1007.2
2017-11-10T05:29:05.352Z,1007.1
2017-11-10T05:30:07.074Z,1007.2
2017-11-10T05:31:08.487Z,1007.2
2017-11-10T05:32:10.277Z,1007.1
2017-11-10T05:33:11.700Z,1007.1
2017-11-10T05:34:13.435Z,1007.1
2017-11-10T05:35:15.142Z,1007.0
2017-11-10T05:36:16.844Z,1007.0
2017-11-10T05:37:18.551Z,1007.0
2017-11-10T05:38:20.623Z,1007.0
2017-11-10T05:39:22.103Z,1007.0
2017-11-10T05:40:23.902Z,1007.1
2017-11-10T05:41:25.502Z,1007.0
2017-11-10T05:42:27.272Z,1007.0
2017-11-10T05:43:28.900Z,1007.0
2017-11-10T05:44:30.619Z,1007.0
2017-11-10T05:45:32.595Z,1007.0
2017-11-10T05:46:34.160Z,1006.9
2017-11-10T05:47:36.490Z,1006.9
2017-11-10T05:48:38.260Z,1006.9
2017-11-10T05:49:39.900Z,1006.9
2017-11-10T05:50:41.628Z,1006.9
2017-11-10T05:51:43.479Z,1006.9
2017-11-10T05:52:45.408Z,1006.8
2017-11-10T05:53:46.923Z,1006.9
2017-11-10T05:54:48.605Z,1006.9
2017-11-10T05:55:50.078Z,1006.8
2017-11-10T05:56:51.740Z,1006.8
2017-11-10T05:57:53.575Z,1006.8
2017-11-10T05:58:55.251Z,1006.8
2017-11-10T05:59:57.047Z,1006.8
2017-11-10T06:00:58.951Z,1006.8
2017-11-10T06:02:00.671Z,1006.7
2017-11-10T06:03:02.344Z,1006.7
2017-11-10T06:04:04.034Z,1006.7
2017-11-10T06:05:05.737Z,1006.7
2017-11-10T06:06:07.510Z,1006.7
2017-11-10T06:07:09.213Z,1006.7
2017-11-10T06:08:10.924Z,1006.6
2017-11-10T06:09:12.655Z,1006.6
2017-11-10T06:10:14.647Z,1006.6
2017-11-10T06:11:16.304Z,1006.6
2017-11-10T06:12:17.981Z,1006.7
2017-11-10T06:13:19.619Z,1006.7
2017-11-10T06:14:21.346Z,1006.6
2017-11-10T06:15:23.069Z,1006.6
2017-11-10T06:16:24.832Z,1006.6
2017-11-10T06:17:26.564Z,1006.5
2017-11-10T06:18:28.460Z,1006.6
2017-11-10T06:19:30.153Z,1006.5
2017-11-10T06:20:32.167Z,1006.5
2017-11-10T06:21:33.879Z,1006.6
2017-11-10T06:22:35.569Z,1006.6
2017-11-10T06:23:37.519Z,1006.6
2017-11-10T06:24:38.939Z,1006.6
2017-11-10T06:25:40.633Z,1006.6
2017-11-10T06:26:42.285Z,1006.7
2017-11-10T06:27:43.728Z,1006.6
2017-11-10T06:28:45.576Z,1006.7
2017-11-10T06:29:47.067Z,1006.6
2017-11-10T06:30:48.717Z,1006.6
2017-11-10T06:31:50.244Z,1006.6
2017-11-10T06:32:51.944Z,1006.6
2017-11-10T06:33:53.378Z,1006.6
2017-11-10T06:34:55.084Z,1006.5
2017-11-10T06:35:56.556Z,1006.5
2017-11-10T06:36:58.037Z,1006.4
2017-11-10T06:37:59.861Z,1006.4
2017-11-10T06:39:01.414Z,1006.4
2017-11-10T06:40:02.867Z,1006.4
2017-11-10T06:41:04.318Z,1006.3
2017-11-10T06:42:06.246Z,1006.3
2017-11-10T06:43:08.034Z,1006.4
2017-11-10T06:44:09.471Z,1006.4
2017-11-10T06:45:11.552Z,1006.4
2017-11-10T06:46:13.011Z,1006.4
2017-11-10T06:47:14.664Z,1006.5
2017-11-10T06:48:16.427Z,1006.5
2017-11-10T06:49:18.158Z,1006.5
2017-11-10T06:50:19.918Z,1006.4
2017-11-10T06:51:21.291Z,1006.5
2017-11-10T06:52:23.137Z,1006.5
2017-11-10T06:53:24.924Z,1006.4
2017-11-10T06:54:26.750Z,1006.5
2017-11-10T06:55:28.433Z,1006.5
2017-11-10T06:56:30.140Z,1006.5
2017-11-10T06:57:31.601Z,1006.4
2017-11-10T06:58:33.336Z,1006.4
2017-11-10T06:59:34.960Z,1006.4
2017-11-10T07:00:36.603Z,1006.4
2017-11-10T07:01:38.096Z,1006.4
2017-11-10T07:02:39.801Z,1006.3
2017-11-10T07:03:41.265Z,1006.4
2017-11-10T07:04:42.977Z,1006.3
2017-11-10T07:05:44.593Z,1006.4
2017-11-10T07:06:46.414Z,1006.2
2017-11-10T07:07:48.099Z,1006.2
2017-11-10T07:08:49.763Z,1006.2
2017-11-10T07:09:51.264Z,1006.2
2017-11-10T07:10:53.218Z,1006.2
2017-11-10T07:11:55.277Z,1006.2
2017-11-10T07:12:57.218Z,1006.2
2017-11-10T07:13:58.716Z,1006.1
2017-11-10T07:15:00.145Z,1006.1
2017-11-10T07:16:01.814Z,1006.1
2017-11-10T07:17:03.482Z,1006.1
2017-11-10T07:18:05.511Z,1006.1
2017-11-10T07:19:07.134Z,1006.0
2017-11-10T07:20:08.932Z,1006.0
2017-11-10T07:21:10.611Z,1006.0
2017-11-10T07:22:12.634Z,1006.0
2017-11-10T07:23:14.364Z,1005.9
2017-11-10T07:24:16.403Z,1005.8
2017-11-10T07:25:18.152Z,1005.8
2017-11-10T07:26:19.837Z,1005.9
2017-11-10T07:27:21.467Z,1006.0
2017-11-10T07:28:23.169Z,1005.9
2017-11-10T07:29:24.900Z,1005.9
2017-11-10T07:30:26.887Z,1005.9
2017-11-10T07:31:28.347Z,1005.9
2017-11-10T07:32:29.989Z,1005.8
2017-11-10T07:33:31.674Z,1005.8
2017-11-10T07:34:33.149Z,1005.7
2017-11-10T07:35:35.069Z,1005.7
2017-11-10T07:36:36.783Z,1005.8
2017-11-10T07:37:38.643Z,1005.9
2017-11-10T07:38:40.100Z,1005.8
2017-11-10T07:39:41.476Z,1005.8
2017-11-10T07:40:42.949Z,1005.8
2017-11-10T07:41:44.529Z,1005.8
2017-11-10T07:42:45.977Z,1005.8
2017-11-10T07:43:47.433Z,1005.8
2017-11-10T07:44:49.066Z,1005.9
2017-11-10T07:45:50.819Z,1005.8
2017-11-10T07:46:52.228Z,1005.8
2017-11-10T07:47:53.616Z,1005.8
2017-11-10T07:48:55.008Z,1005.8
2017-11-10T07:49:56.448Z,1005.8
2017-11-10T07:50:58.000Z,1005.8
2017-11-10T07:51:59.400Z,1005.8
2017-11-10T07:53:00.838Z,1005.8
2017-11-10T07:54:02.314Z,1005.8
2017-11-10T07:55:03.771Z,1005.8
2017-11-10T07:56:05.182Z,1005.7
2017-11-10T07:57:06.656Z,1005.7
2017-11-10T07:58:08.546Z,1005.7
2017-11-10T07:59:10.303Z,1005.7
2017-11-10T08:00:12.335Z,1005.7
2017-11-10T08:01:14.163Z,1005.6
2017-11-10T08:02:15.652Z,1005.5
2017-11-10T08:03:17.076Z,1005.6
2017-11-10T08:04:18.571Z,1005.5
2017-11-10T08:05:20.007Z,1005.5
2017-11-10T08:06:21.487Z,1005.4
2017-11-10T08:07:22.924Z,1005.4
2017-11-10T08:08:24.391Z,1005.4
2017-11-10T08:09:25.822Z,1005.4
2017-11-10T08:10:27.224Z,1005.5
2017-11-10T08:11:28.644Z,1005.3
2017-11-10T08:12:30.070Z,1005.3
2017-11-10T08:13:31.480Z,1005.3
2017-11-10T08:14:32.870Z,1005.3
2017-11-10T08:15:34.475Z,1005.4
2017-11-10T08:16:36.011Z,1005.3
2017-11-10T08:17:37.703Z,1005.3
2017-11-10T08:18:39.306Z,1005.3
2017-11-10T08:19:40.692Z,1005.2
2017-11-10T08:20:42.231Z,1005.2
2017-11-10T08:21:44.048Z,1005.3
2017-11-10T08:22:45.487Z,1005.3
2017-11-10T08:23:46.995Z,1005.3
2017-11-10T08:24:48.444Z,1005.3
2017-11-10T08:25:50.019Z,1005.3
2017-11-10T08:26:51.663Z,1005.3
2017-11-10T08:27:53.053Z,1005.3
2017-11-10T08:28:54.457Z,1005.2
2017-11-10T08:29:55.889Z,1005.3
2017-11-10T08:30:57.397Z,1005.2
2017-11-10T08:31:58.857Z,1005.1
2017-11-10T08:33:00.541Z,1005.1
2017-11-10T08:34:02.004Z,1005.1
2017-11-10T08:35:03.400Z,1005.1
2017-11-10T08:36:04.885Z,1005.1
2017-11-10T08:37:06.303Z,1005.1
2017-11-10T08:38:07.786Z,1005.1
2017-11-10T08:39:09.248Z,1005.1
2017-11-10T08:40:10.671Z,1005.1
2017-11-10T08:41:12.123Z,1005.1
2017-11-10T08:42:13.562Z,1005.1
2017-11-10T08:43:14.986Z,1005.0
2017-11-10T08:44:16.471Z,1005.1
2017-11-10T08:45:17.955Z,1005.1
2017-11-10T08:46:19.384Z,1005.1
2017-11-10T08:47:20.854Z,1005.3
2017-11-10T08:48:22.734Z,1005.1
2017-11-10T08:49:24.556Z,1005.1
2017-11-10T08:50:25.962Z,1005.1
2017-11-10T08:51:27.423Z,1005.1
2017-11-10T08:52:28.842Z,1005.1
2017-11-10T08:53:30.340Z,1005.1
2017-11-10T08:54:31.794Z,1005.1
2017-11-10T08:55:33.525Z,1005.1
2017-11-10T08:56:35.286Z,1005.1
2017-11-10T08:57:36.761Z,1005.1
2017-11-10T08:58:38.209Z,1005.1
2017-11-10T08:59:39.626Z,1005.1
2017-11-10T09:00:41.343Z,1005.0
2017-11-10T09:01:43.120Z,1005.1
2017-11-10T09:02:44.859Z,1005.0
2017-11-10T09:03:46.303Z,1005.1
2017-11-10T09:04:47.793Z,1004.9
2017-11-10T09:05:49.209Z,1005.1
2017-11-10T09:06:50.672Z,1005.0
2017-11-10T09:07:52.310Z,1005.0
2017-11-10T09:08:54.020Z,1004.9
2017-11-10T09:09:55.722Z,1004.9
2017-11-10T09:10:57.465Z,1004.9
2017-11-10T09:11:59.172Z,1004.9
2017-11-10T09:13:01.239Z,1004.9
2017-11-10T09:14:02.955Z,1004.9
2017-11-10T09:15:04.650Z,1004.9
2017-11-10T09:16:06.968Z,1004.9
2017-11-10T09:17:08.409Z,1004.9
2017-11-10T09:18:09.858Z,1004.9
2017-11-10T09:19:11.363Z,1004.8
2017-11-10T09:20:12.895Z,1004.9
2017-11-10T09:21:14.330Z,1004.8
2017-11-10T09:22:15.740Z,1004.8
2017-11-10T09:23:17.428Z,1004.8
2017-11-10T09:24:18.854Z,1004.7
2017-11-10T09:25:20.308Z,1004.8
2017-11-10T09:26:21.715Z,1004.8
2017-11-10T09:27:23.325Z,1004.8
2017-11-10T09:28:24.754Z,1004.8
2017-11-10T09:29:26.562Z,1004.8
2017-11-10T09:30:28.348Z,1004.8
2017-11-10T09:31:29.808Z,1004.7
2017-11-10T09:32:31.403Z,1004.7
2017-11-10T09:33:33.092Z,1004.7
2017-11-10T09:34:34.517Z,1004.6
2017-11-10T09:35:36.065Z,1004.6
2017-11-10T09:36:37.554Z,1004.6
2017-11-10T09:37:39.294Z,1004.6
2017-11-10T09:38:41.354Z,1004.6
2017-11-10T09:39:43.150Z,1004.5
2017-11-10T09:40:45.040Z,1004.6
2017-11-10T09:41:46.700Z,1004.6
2017-11-10T09:42:48.383Z,1004.6
2017-11-10T09:43:50.065Z,1004.5
2017-11-10T09:44:51.764Z,1004.6
2017-11-10T09:45:53.441Z,1004.6
2017-11-10T09:46:55.314Z,1004.6
2017-11-10T09:47:56.985Z,1004.7
2017-11-10T09:48:58.448Z,1004.6
2017-11-10T09:50:00.308Z,1004.6
2017-11-10T09:51:01.746Z,1004.6
2017-11-10T09:52:03.362Z,1004.6
2017-11-10T09:53:05.265Z,1004.5
2017-11-10T09:54:06.964Z,1004.6
2017-11-10T09:55:08.674Z,1004.5
2017-11-10T09:56:10.612Z,1004.6
2017-11-10T09:57:12.082Z,1004.5
2017-11-10T09:58:13.552Z,1004.6
2017-11-10T09:59:15.294Z,1004.5
2017-11-10T10:00:17.398Z,1004.6
2017-11-10T10:01:19.104Z,1004.6
2017-11-10T10:02:21.085Z,1004.6
2017-11-10T10:03:22.777Z,1004.5
2017-11-10T10:04:24.860Z,1004.5
2017-11-10T10:05:26.528Z,1004.4
2017-11-10T10:06:28.234Z,1004.4
2017-11-10T10:07:30.031Z,1004.4
2017-11-10T10:08:31.764Z,1004.4
2017-11-10T10:09:33.409Z,1004.5
2017-11-10T10:10:35.068Z,1004.5
2017-11-10T10:11:36.569Z,1004.4
2017-11-10T10:12:38.276Z,1004.4
2017-11-10T10:13:40.212Z,1004.4
2017-11-10T10:14:41.667Z,1004.3
2017-11-10T10:15:43.463Z,1004.3
2017-11-10T10:16:45.095Z,1004.3
2017-11-10T10:17:46.801Z,1004.3
2017-11-10T10:18:48.520Z,1004.3
2017-11-10T10:19:50.172Z,1004.3
2017-11-10T10:20:52.163Z,1004.3
2017-11-10T10:21:54.138Z,1004.3
2017-11-10T10:22:55.816Z,1004.3
2017-11-10T10:23:57.543Z,1004.2
2017-11-10T10:24:59.210Z,1004.3
2017-11-10T10:26:00.919Z,1004.3
2017-11-10T10:27:02.416Z,1004.2
2017-11-10T10:28:04.138Z,1004.1
2017-11-10T10:29:05.796Z,1004.0
2017-11-10T10:30:07.520Z,1004.0
2017-11-10T10:31:09.247Z,1004.0
2017-11-10T10:32:10.931Z,1004.0
2017-11-10T10:33:12.993Z,1003.9
2017-11-10T10:34:15.062Z,1003.9
2017-11-10T10:35:17.119Z,1003.9
2017-11-10T10:36:19.189Z,1003.9
2017-11-10T10:37:20.844Z,1003.8
2017-11-10T10:38:22.529Z,1003.7
2017-11-10T10:39:24.583Z,1003.7
2017-11-10T10:40:26.046Z,1003.7
2017-11-10T10:41:27.953Z,1003.6
2017-11-10T10:42:29.632Z,1003.7
2017-11-10T10:43:31.499Z,1003.7
2017-11-10T10:44:33.197Z,1003.7
2017-11-10T10:45:34.837Z,1003.7
2017-11-10T10:46:36.787Z,1003.7
2017-11-10T10:47:38.271Z,1003.7
2017-11-10T10:48:39.922Z,1003.6
2017-11-10T10:49:41.545Z,1003.7
2017-11-10T10:50:43.592Z,1003.6
2017-11-10T10:51:45.035Z,1003.5
2017-11-10T10:52:46.725Z,1003.6
2017-11-10T10:53:48.339Z,1003.6
2017-11-10T10:54:50.015Z,1003.5
2017-11-10T10:55:51.728Z,1003.5
2017-11-10T10:56:53.530Z,1003.5
2017-11-10T10:57:54.972Z,1003.5
2017-11-10T10:58:56.609Z,1003.4
2017-11-10T10:59:58.375Z,1003.4
2017-11-10T11:00:59.864Z,1003.4
2017-11-10T11:02:01.337Z,1003.4
2017-11-10T11:03:02.849Z,1003.3
2017-11-10T11:04:04.843Z,1003.4
2017-11-10T11:05:06.451Z,1003.3
2017-11-10T11:06:08.231Z,1003.4
2017-11-10T11:07:09.833Z,1003.4
2017-11-10T11:08:11.271Z,1003.3
2017-11-10T11:09:12.731Z,1003.3
2017-11-10T11:10:14.414Z,1003.3
2017-11-10T11:11:15.928Z,1003.3
2017-11-10T11:12:17.792Z,1003.3
2017-11-10T11:13:19.491Z,1003.3
2017-11-10T11:14:20.986Z,1003.3
2017-11-10T11:15:22.458Z,1003.3
2017-11-10T11:16:24.527Z,1003.2
2017-11-10T11:17:26.591Z,1003.2
2017-11-10T11:18:28.519Z,1003.2
2017-11-10T11:19:29.996Z,1003.2
2017-11-10T11:20:31.395Z,1003.2
2017-11-10T11:21:33.131Z,1003.2
2017-11-10T11:22:34.802Z,1003.1
2017-11-10T11:23:36.695Z,1003.1
2017-11-10T11:24:38.202Z,1003.1
2017-11-10T11:25:39.748Z,1003.0
2017-11-10T11:26:41.176Z,1002.8
2017-11-10T11:27:42.678Z,1002.8
2017-11-10T11:28:44.131Z,1002.8
2017-11-10T11:29:45.579Z,1002.8
2017-11-10T11:30:47.043Z,1002.8
2017-11-10T11:31:48.776Z,1002.8
2017-11-10T11:32:50.397Z,1002.9
2017-11-10T11:33:51.846Z,1002.8
2017-11-10T11:34:53.613Z,1002.8
2017-11-10T11:35:55.082Z,1002.9
2017-11-10T11:36:56.979Z,1002.8
2017-11-10T11:37:58.685Z,1002.8
2017-11-10T11:39:00.359Z,1002.7
2017-11-10T11:40:02.178Z,1002.7
2017-11-10T11:41:03.935Z,1002.5
2017-11-10T11:42:05.848Z,1002.5
2017-11-10T11:43:07.432Z,1002.5
2017-11-10T11:44:09.114Z,1002.5
2017-11-10T11:45:10.559Z,1002.4
2017-11-10T11:46:12.345Z,1002.3
2017-11-10T11:47:14.076Z,1002.3
2017-11-10T11:48:15.985Z,1002.3
2017-11-10T11:49:17.405Z,1002.3
2017-11-10T11:50:19.079Z,1002.3
2017-11-10T11:51:20.529Z,1002.2
2017-11-10T11:52:21.995Z,1002.2
2017-11-10T11:53:23.455Z,1002.3
2017-11-10T11:54:24.937Z,1002.2
2017-11-10T11:55:26.374Z,1002.2
2017-11-10T11:56:27.926Z,1002.3
2017-11-10T11:57:29.413Z,1002.2
2017-11-10T11:58:30.835Z,1002.3
2017-11-10T11:59:32.291Z,1002.2
2017-11-10T12:00:33.712Z,1002.3
2017-11-10T12:01:35.174Z,1002.3
2017-11-10T12:02:36.609Z,1002.2
2017-11-10T12:03:38.086Z,1002.2
2017-11-10T12:04:39.594Z,1002.2
2017-11-10T12:05:41.032Z,1002.1
2017-11-10T12:06:42.442Z,1002.1
2017-11-10T12:07:43.876Z,1002.1
2017-11-10T12:08:45.322Z,1002.0
2017-11-10T12:09:46.721Z,1002.0
2017-11-10T12:10:48.304Z,1002.0
2017-11-10T12:11:49.752Z,1001.8
2017-11-10T12:12:51.163Z,1001.9
2017-11-10T12:13:52.609Z,1001.9
2017-11-10T12:14:54.055Z,1001.8
2017-11-10T12:15:55.512Z,1001.8
2017-11-10T12:16:56.919Z,1001.8
2017-11-10T12:17:58.347Z,1001.7
2017-11-10T12:18:59.805Z,1001.8
2017-11-10T12:20:01.208Z,1001.7
2017-11-10T12:21:02.626Z,1001.7
2017-11-10T12:22:04.076Z,1001.7
2017-11-10T12:23:05.501Z,1001.6
2017-11-10T12:24:06.913Z,1001.6
2017-11-10T12:25:08.347Z,1001.6
2017-11-10T12:26:09.825Z,1001.6
2017-11-10T12:27:11.302Z,1001.6
2017-11-10T12:28:12.768Z,1001.6
2017-11-10T12:29:14.218Z,1001.5
2017-11-10T12:30:15.612Z,1001.5
2017-11-10T12:31:17.024Z,1001.5
2017-11-10T12:32:18.448Z,1001.5
2017-11-10T12:33:19.903Z,1001.5
2017-11-10T12:34:21.355Z,1001.5
2017-11-10T12:35:22.787Z,1001.4
2017-11-10T12:36:24.237Z,1001.4
2017-11-10T12:37:25.693Z,1001.4
2017-11-10T12:38:27.107Z,1001.4
2017-11-10T12:39:28.524Z,1001.4
2017-11-10T12:40:29.972Z,1001.4
2017-11-10T12:41:31.420Z,1001.4
2017-11-10T12:42:32.855Z,1001.3
2017-11-10T12:43:34.267Z,1001.4
2017-11-10T12:44:35.722Z,1001.4
2017-11-10T12:45:37.126Z,1001.3
2017-11-10T12:46:38.602Z,1001.3
2017-11-10T12:47:40.037Z,1001.3
2017-11-10T12:48:41.498Z,1001.3